Flight Track Log - Related Links

Times and Time Zones

All times are in EDT time to prevent confusion due to time zone crossing. See the TAM3871 flight status page for this flight to view local times or setup timezone preferences in your user account.

Time Position Orientation Groundspeed Altitude Reporting Facility
EDT Latitude Longitude Course Direction KTS MPH feet Rate Location/Type
Tue 01:31:00 PM -3.5223 -48.8311 189° South  Level Estimated
Tue 01:32:00 PM -3.6197 -48.8472 189° South  Level Estimated
Tue 01:33:00 PM -3.7171 -48.8634 189° South  Level Estimated
Tue 01:34:00 PM -3.8145 -48.8796 189° South  Level Estimated
Tue 01:35:00 PM -3.9120 -48.8957 189° South  Level Estimated
Tue 01:36:00 PM -4.0094 -48.9119 189° South  Level Estimated
Tue 01:37:00 PM -4.1068 -48.9281 189° South  Level Estimated
Tue 01:38:00 PM -4.2042 -48.9443 189° South  Level Estimated
Tue 01:39:00 PM -4.3016 -48.9604 189° South  Level Estimated
Tue 01:40:00 PM -4.3990 -48.9766 189° South  Level Estimated
Tue 01:41:00 PM -4.4964 -48.9928 189° South  Level Estimated
Tue 01:42:00 PM -4.5938 -49.0090 189° South  Level Estimated
Tue 01:43:00 PM -4.6912 -49.0252 189° South  Level Estimated
Tue 01:44:00 PM -4.7887 -49.0414 189° South  Level Estimated
Tue 01:45:00 PM -4.8861 -49.0576 189° South  Level Estimated
Tue 01:46:00 PM -4.9834 -49.0739 189° South  Level Estimated
Tue 01:47:00 PM -5.0809 -49.0901 189° South  Level Estimated
Tue 01:48:00 PM -5.1782 -49.1063 189° South  Level Estimated
Tue 01:49:00 PM -5.2757 -49.1225 189° South  Level Estimated
Tue 01:50:00 PM -5.3686 -49.1380 189° South  Level Estimated
Tue 01:51:00 PM -5.3686 -49.1380 79° East  Level Estimated
Tue 01:52:00 PM -5.3686 -49.1380 79° East  Level Estimated
Tue 01:53:00 PM -5.3686 -49.1380 79° East  Level Estimated
Tue 01:54:00 PM -5.3686 -49.1380 79° East  Level Estimated
Tue 01:55:00 PM -5.3686 -49.1380 79° East  Level Estimated
Tue 01:56:00 PM -5.3686 -49.1380 79° East  Level Estimated
Tue 01:57:00 PM -5.3686 -49.1380 79° East  Level Estimated
Tue 01:58:00 PM -5.3686 -49.1380 79° East  Level Estimated
Tue 01:59:00 PM -5.3686 -49.1380 79° East  Level Estimated
Tue 02:00:00 PM -5.3686 -49.1380 79° East  Level Estimated
Tue 02:01:00 PM -5.3686 -49.1380 79° East  Level Estimated
Tue 02:02:00 PM -5.3686 -49.1380 79° East  Level Estimated
Tue 02:03:00 PM -5.3686 -49.1380 79° East  Level Estimated
Tue 02:04:00 PM -5.3686 -49.1380 79° East  Level Estimated
Tue 02:05:00 PM -5.3686 -49.1380 79° East  Level Estimated
Tue 02:06:00 PM -5.3686 -49.1380 79° East  Level Estimated

Login

Don't have an account? Register now (free) for customized features, flight alerts, and more!